Augusta, Illinois
Current Conditions -  °F | °C
As of 10:54 AM on Wednesday 22 Oct 2014 (Local Time) from KUIN Reporting Station
Clear Clear  
Wind Chill: 52°   Ceiling: Unl
Heat Index: 52°   Visibility: 10mi
Dew Point: 41°   Wind: 10mph
Humidity: 66%   Direction: 150°SSE
Pressure: 30.32"   Gusts: NA
Location:  40.23°N, 90.95°W
Report Text: KUIN 221554Z AUTO 15009KT 10SM CLR 11/05 A3032 RMK AO2 SLP268 T01110050
Loading
Personal Weather Stations






























Interactive Weather Map New forecast layout! Learn more

10-Day Weather Forecast

Advertisements
Track Severe Weather on mobile